EGLF - Farnborough
Distance from station: E 5mi, 14km
Updated: 10/23/2017 9:50am
Mostly Cloudy
Mostly Cloudy
 Wind from WSW
Wind: WSW 7 mph , 11 km/h
Temperature: 59°F , 15°C
Dew Point: 59°F , 15°C
Humidity: 100%
Barometer: 30.03 inHg , 1017 hPa
Clouds: Mostly Cloudy
Visibility: 6 miles , 10 km
Cloud details: Mostly Cloudy 900 ft
2017/10/23 16:50 EGLF 231650Z 24006KT 9999 BKN009 15/15 Q1017